createdAt,value
2023-04-05T00:00:09.991Z,98801.44
2023-04-05T00:01:58.179Z,98796.19
2023-04-05T00:03:43.586Z,98796.25
2023-04-05T00:05:29.432Z,98794.47
2023-04-05T00:07:16.250Z,98786.81
2023-04-05T00:09:04.058Z,98790.25
2023-04-05T00:10:45.343Z,98802.63
2023-04-05T00:12:32.205Z,98794.78
2023-04-05T00:14:18.574Z,98807.81
2023-04-05T00:15:58.433Z,98794.59
2023-04-05T00:17:45.287Z,98799.88
2023-04-05T00:19:34.040Z,98789.38
2023-04-05T00:21:14.753Z,98796.44
2023-04-05T00:23:01.248Z,98787.84
2023-04-05T00:24:47.509Z,98796.63
2023-04-05T00:26:28.353Z,98792.84
2023-04-05T00:28:15.246Z,98797.09
2023-04-05T00:30:01.548Z,98801.56
2023-04-05T00:31:41.006Z,98803.44
2023-04-05T00:33:27.341Z,98806.09
2023-04-05T00:35:14.514Z,98801.63
2023-04-05T00:36:54.008Z,98802.44
2023-04-05T00:38:41.255Z,98806.75
2023-04-05T00:40:28.008Z,98784.78
2023-04-05T00:42:09.621Z,98796.19
2023-04-05T00:43:54.293Z,98790.06
2023-04-05T00:45:41.804Z,98792.84
2023-04-05T00:47:21.380Z,98792.91
2023-04-05T00:49:08.236Z,98792.00
2023-04-05T00:50:57.558Z,98804.91
2023-04-05T00:52:38.224Z,98792.53
2023-04-05T00:54:26.310Z,98788.06
2023-04-05T00:56:13.981Z,98787.06
2023-04-05T00:57:56.969Z,98784.94
2023-04-05T00:59:43.276Z,98788.22
2023-04-05T01:01:28.141Z,98799.47
2023-04-05T01:03:17.003Z,98784.84
2023-04-05T01:05:08.242Z,98793.78
2023-04-05T01:07:09.707Z,98780.97
2023-04-05T01:09:09.262Z,98790.63
2023-04-05T01:11:09.305Z,98797.63
2023-04-05T01:12:50.161Z,98800.22
2023-04-05T01:14:45.343Z,98795.81
2023-04-05T01:16:32.065Z,98805.31
2023-04-05T01:18:25.315Z,98796.56
2023-04-05T01:20:17.339Z,98797.31
2023-04-05T01:22:32.179Z,98801.66
2023-04-05T01:24:40.393Z,98796.41
2023-04-05T01:27:09.339Z,98794.59
2023-04-05T01:29:28.319Z,98790.22
2023-04-05T01:31:57.410Z,98802.69
2023-04-05T01:34:06.229Z,98798.56
2023-04-05T01:36:03.308Z,98802.75
2023-04-05T01:37:52.556Z,98801.78
2023-04-05T01:39:46.338Z,98801.78
2023-04-05T01:41:32.444Z,98803.66
2023-04-05T01:43:16.086Z,98806.25
2023-04-05T01:45:05.299Z,98803.56
2023-04-05T01:47:13.246Z,98804.59
2023-04-05T01:49:00.114Z,98814.94
2023-04-05T01:50:54.275Z,98803.56
2023-04-05T01:52:54.341Z,98803.72
2023-04-05T01:54:41.410Z,98796.84
2023-04-05T01:56:34.276Z,98804.72
2023-04-05T01:58:21.009Z,98800.84
2023-04-05T02:00:15.487Z,98801.69
2023-04-05T02:02:02.295Z,98805.22
2023-04-05T02:03:48.646Z,98797.31
2023-04-05T02:05:41.481Z,98802.44
2023-04-05T02:07:24.433Z,98806.91
2023-04-05T02:09:11.022Z,98795.72
2023-04-05T02:11:00.523Z,98800.69
2023-04-05T02:12:46.700Z,98800.84
2023-04-05T02:14:26.248Z,98810.47
2023-04-05T02:16:14.467Z,98809.38
2023-04-05T02:18:02.247Z,98804.97
2023-04-05T02:19:42.173Z,98800.69
2023-04-05T02:21:28.516Z,98799.91
2023-04-05T02:23:16.518Z,98817.19
2023-04-05T02:24:57.017Z,98798.03
2023-04-05T02:26:42.445Z,98804.13
2023-04-05T02:28:30.737Z,98804.09
2023-04-05T02:30:10.641Z,98804.91
2023-04-05T02:32:05.330Z,98802.22
2023-04-05T02:34:07.336Z,98810.06
2023-04-05T02:35:54.666Z,98797.91
2023-04-05T02:37:48.425Z,98816.00
2023-04-05T02:39:48.317Z,98814.16
2023-04-05T02:41:41.310Z,98810.69
2023-04-05T02:43:34.392Z,98812.50
2023-04-05T02:45:27.977Z,98805.44
2023-04-05T02:47:14.359Z,98801.25
2023-04-05T02:49:00.550Z,98804.50
2023-04-05T02:50:48.510Z,98786.56
2023-04-05T02:52:44.319Z,98812.50
2023-04-05T02:54:23.577Z,98798.44
2023-04-05T02:56:21.389Z,98803.56
2023-04-05T02:58:08.625Z,98810.50
2023-04-05T03:00:05.484Z,98795.72
2023-04-05T03:01:53.366Z,98801.56
2023-04-05T03:03:42.515Z,98798.13
2023-04-05T03:05:36.543Z,98800.78
2023-04-05T03:07:25.421Z,98793.81
2023-04-05T03:09:14.472Z,98798.13
2023-04-05T03:11:06.311Z,98796.31
2023-04-05T03:12:58.412Z,98794.53
2023-04-05T03:14:39.723Z,98790.25
2023-04-05T03:16:35.671Z,98801.50
2023-04-05T03:18:31.698Z,98798.00
2023-04-05T03:20:29.367Z,98796.31
2023-04-05T03:22:23.411Z,98800.72
2023-04-05T03:24:10.280Z,98794.53
2023-04-05T03:26:04.379Z,98800.72
2023-04-05T03:28:02.452Z,98805.09
2023-04-05T03:29:44.587Z,98803.31
2023-04-05T03:31:31.227Z,98808.56
2023-04-05T03:33:27.529Z,98810.28
2023-04-05T03:35:19.319Z,98808.38
2023-04-05T03:37:14.431Z,98810.03
2023-04-05T03:39:11.707Z,98811.78
2023-04-05T03:40:57.629Z,98812.75
2023-04-05T03:42:43.396Z,98811.78
2023-04-05T03:44:30.354Z,98812.56
2023-04-05T03:46:24.486Z,98808.19
2023-04-05T03:48:10.417Z,98814.16
2023-04-05T03:49:56.787Z,98806.31
2023-04-05T03:51:44.216Z,98818.44
2023-04-05T03:53:33.368Z,98809.75
2023-04-05T03:55:20.677Z,98816.78
2023-04-05T03:57:14.402Z,98815.22
2023-04-05T03:59:02.476Z,98820.31
2023-04-05T04:00:49.172Z,98815.88
2023-04-05T04:02:43.400Z,98815.81
2023-04-05T04:04:40.438Z,98821.91
2023-04-05T04:06:20.781Z,98832.22
2023-04-05T04:08:14.374Z,98826.97
2023-04-05T04:10:09.446Z,98830.44
2023-04-05T04:11:58.292Z,98828.56
2023-04-05T04:13:53.387Z,98823.41
2023-04-05T04:15:55.478Z,98828.47
2023-04-05T04:17:51.794Z,98823.25
2023-04-05T04:20:21.421Z,98830.06
2023-04-05T04:22:21.558Z,98823.06
2023-04-05T04:24:34.463Z,98824.78
2023-04-05T04:26:48.576Z,98831.66
2023-04-05T04:29:04.459Z,98821.03
2023-04-05T04:31:09.378Z,98829.63
2023-04-05T04:33:17.450Z,98812.19
2023-04-05T04:35:47.439Z,98804.38
2023-04-05T04:37:47.719Z,98822.53
2023-04-05T04:40:01.398Z,98829.50
2023-04-05T04:41:57.437Z,98832.91
2023-04-05T04:44:05.520Z,98817.97
2023-04-05T04:46:15.984Z,98820.72
2023-04-05T04:48:16.489Z,98825.94
2023-04-05T04:50:33.674Z,98823.44
2023-04-05T04:52:19.627Z,98831.34
2023-04-05T04:54:05.433Z,98841.13
2023-04-05T04:55:51.851Z,98838.63
2023-04-05T04:57:46.527Z,98831.66
2023-04-05T04:59:33.692Z,98840.28
2023-04-05T05:01:22.809Z,98817.56
2023-04-05T05:03:17.447Z,98832.13
2023-04-05T05:05:11.469Z,98831.03
2023-04-05T05:06:51.248Z,98839.66
2023-04-05T05:08:45.383Z,98836.03
2023-04-05T05:10:38.656Z,98839.31
2023-04-05T05:12:18.360Z,98834.75
2023-04-05T05:14:13.450Z,98839.91
2023-04-05T05:16:07.477Z,98833.75
2023-04-05T05:17:54.047Z,98834.41
2023-04-05T05:19:46.486Z,98833.44
2023-04-05T05:21:32.665Z,98833.22
2023-04-05T05:23:27.526Z,98840.94
2023-04-05T05:25:14.472Z,98825.13
2023-04-05T05:27:01.117Z,98825.75
2023-04-05T05:28:48.941Z,98829.09
2023-04-05T05:30:42.963Z,98823.69
2023-04-05T05:32:43.535Z,98826.84
2023-04-05T05:34:43.669Z,98829.53
2023-04-05T05:36:37.528Z,98825.72
2023-04-05T05:38:23.659Z,98826.47
2023-04-05T05:40:19.551Z,98831.41
2023-04-05T05:42:05.723Z,98837.19
2023-04-05T05:43:45.288Z,98833.50
2023-04-05T05:45:31.663Z,98828.91
2023-04-05T05:47:19.653Z,98818.06
2023-04-05T05:48:59.205Z,98834.47
2023-04-05T05:50:45.495Z,98828.59
2023-04-05T05:52:31.697Z,98833.41
2023-04-05T05:54:11.205Z,98832.97
2023-04-05T05:55:56.647Z,98829.81
2023-04-05T05:57:42.696Z,98826.66
2023-04-05T05:59:22.311Z,98821.88
2023-04-05T06:01:10.646Z,98822.41
2023-04-05T06:02:59.375Z,98828.44
2023-04-05T06:04:39.250Z,98831.13
2023-04-05T06:06:25.685Z,98839.84
2023-04-05T06:08:05.708Z,98829.31
2023-04-05T06:09:52.258Z,98827.09
2023-04-05T06:11:46.338Z,98824.94
2023-04-05T06:13:39.699Z,98827.56
2023-04-05T06:15:19.261Z,98822.13
2023-04-05T06:17:05.542Z,98815.25
2023-04-05T06:18:55.590Z,98823.81
2023-04-05T06:20:35.775Z,98831.56
2023-04-05T06:22:21.671Z,98831.19
2023-04-05T06:24:07.703Z,98832.56
2023-04-05T06:25:47.290Z,98830.00
2023-04-05T06:27:33.545Z,98843.81
2023-04-05T06:29:19.753Z,98839.59
2023-04-05T06:31:00.032Z,98842.56
2023-04-05T06:32:45.822Z,98839.81
2023-04-05T06:34:47.453Z,98839.56
2023-04-05T06:36:35.115Z,98826.28
2023-04-05T06:38:27.800Z,98842.84
2023-04-05T06:40:27.530Z,98843.81
2023-04-05T06:42:28.136Z,98852.19
2023-04-05T06:44:18.329Z,98849.72
2023-04-05T06:46:08.837Z,98842.53
2023-04-05T06:47:54.576Z,98852.28
2023-04-05T06:49:35.755Z,98860.66
2023-04-05T06:51:21.883Z,98856.41
2023-04-05T06:53:07.514Z,98845.19
2023-04-05T06:54:54.411Z,98850.25
2023-04-05T06:56:40.676Z,98856.19
2023-04-05T06:58:26.594Z,98847.00
2023-04-05T07:00:11.205Z,98856.50
2023-04-05T07:02:03.467Z,98862.25
2023-04-05T07:03:49.559Z,98867.16
2023-04-05T07:05:37.885Z,98864.34
2023-04-05T07:07:31.507Z,98858.34
2023-04-05T07:09:24.551Z,98868.00
2023-04-05T07:11:24.786Z,98865.00
2023-04-05T07:13:17.527Z,98871.91
2023-04-05T07:15:10.517Z,98862.97
2023-04-05T07:16:50.847Z,98862.19
2023-04-05T07:18:43.547Z,98864.81
2023-04-05T07:20:31.676Z,98866.38
2023-04-05T07:22:24.728Z,98864.78
2023-04-05T07:24:11.551Z,98870.16
2023-04-05T07:25:57.758Z,98865.22
2023-04-05T07:27:50.656Z,98865.00
2023-04-05T07:29:37.560Z,98863.38
2023-04-05T07:31:25.081Z,98868.66
2023-04-05T07:33:17.711Z,98866.72
2023-04-05T07:34:57.757Z,98859.75
2023-04-05T07:36:46.878Z,98861.47
2023-04-05T07:38:37.863Z,98867.66
2023-04-05T07:40:37.535Z,98876.06
2023-04-05T07:42:24.246Z,98870.41
2023-04-05T07:44:16.672Z,98868.53
2023-04-05T07:46:17.533Z,98870.94
2023-04-05T07:48:10.638Z,98870.59
2023-04-05T07:49:58.012Z,98877.72
2023-04-05T07:51:52.543Z,98872.09
2023-04-05T07:53:38.599Z,98871.66
2023-04-05T07:55:25.680Z,98874.88
2023-04-05T07:57:12.723Z,98872.66
2023-04-05T07:59:01.574Z,98872.22
2023-04-05T08:00:42.382Z,98872.78
2023-04-05T08:02:35.667Z,98873.94
2023-04-05T08:04:29.594Z,98874.09
2023-04-05T08:06:18.545Z,98874.75
2023-04-05T08:08:15.590Z,98875.94
2023-04-05T08:10:08.606Z,98872.28
2023-04-05T08:11:49.098Z,98887.91
2023-04-05T08:13:41.610Z,98887.38
2023-04-05T08:15:41.551Z,98883.22
2023-04-05T08:17:41.858Z,98880.97
2023-04-05T08:19:35.568Z,98885.56
2023-04-05T08:21:21.794Z,98893.59
2023-04-05T08:23:16.856Z,98891.41
2023-04-05T08:25:03.717Z,98894.50
2023-04-05T08:26:50.498Z,98881.78
2023-04-05T08:28:43.884Z,98898.28
2023-04-05T08:30:36.623Z,98889.91
2023-04-05T08:32:16.077Z,98891.69
2023-04-05T08:34:08.761Z,98887.56
2023-04-05T08:36:01.699Z,98882.66
2023-04-05T08:37:48.765Z,98877.16
2023-04-05T08:39:44.027Z,98882.28
2023-04-05T08:41:42.634Z,98889.41
2023-04-05T08:43:35.931Z,98891.50
2023-04-05T08:45:30.890Z,98886.56
2023-04-05T08:47:18.820Z,98894.09
2023-04-05T08:49:13.549Z,98887.94
2023-04-05T08:51:05.938Z,98894.50
2023-04-05T08:52:52.486Z,98892.34
2023-04-05T08:54:40.877Z,98891.25
2023-04-05T08:56:29.749Z,98885.84
2023-04-05T08:58:14.721Z,98891.84
2023-04-05T09:00:09.642Z,98887.72
2023-04-05T09:02:01.700Z,98887.78
2023-04-05T09:03:49.941Z,98885.75
2023-04-05T09:05:45.639Z,98888.88
2023-04-05T09:07:33.981Z,98889.69
2023-04-05T09:09:15.487Z,98889.78
2023-04-05T09:11:03.674Z,98882.38
2023-04-05T09:12:44.098Z,98899.72
2023-04-05T09:14:31.707Z,98885.81
2023-04-05T09:16:18.687Z,98905.59
2023-04-05T09:18:09.923Z,98917.53
2023-04-05T09:20:05.669Z,98911.28
2023-04-05T09:22:15.635Z,98912.03
2023-04-05T09:23:56.204Z,98916.94
2023-04-05T09:25:50.640Z,98910.97
2023-04-05T09:27:31.788Z,98913.84
2023-04-05T09:29:43.940Z,98914.13
2023-04-05T09:31:40.698Z,98905.00
2023-04-05T09:33:27.806Z,98910.97
2023-04-05T09:35:26.912Z,98897.78
2023-04-05T09:37:27.631Z,98913.38
2023-04-05T09:39:29.612Z,98909.63
2023-04-05T09:41:22.825Z,98917.66
2023-04-05T09:43:17.701Z,98913.47
2023-04-05T09:45:01.524Z,98904.38
2023-04-05T09:47:00.662Z,98915.03
2023-04-05T09:48:57.704Z,98911.34
2023-04-05T09:50:43.862Z,98912.88
2023-04-05T09:52:39.878Z,98903.41
2023-04-05T09:54:34.708Z,98915.19
2023-04-05T09:56:15.001Z,98915.97
2023-04-05T09:58:07.953Z,98909.31
2023-04-05T09:59:49.098Z,98905.28
2023-04-05T10:01:42.697Z,98904.94
2023-04-05T10:03:29.088Z,98908.06
2023-04-05T10:05:16.024Z,98900.97
2023-04-05T10:06:55.577Z,98906.97
2023-04-05T10:08:41.791Z,98906.75
2023-04-05T10:10:29.843Z,98893.88
2023-04-05T10:12:11.716Z,98892.00
2023-04-05T10:13:59.788Z,98890.41
2023-04-05T10:15:49.949Z,98889.91
2023-04-05T10:17:36.147Z,98889.13
2023-04-05T10:19:33.804Z,98893.66
2023-04-05T10:21:24.146Z,98894.75
2023-04-05T10:23:16.668Z,98895.94
2023-04-05T10:25:15.040Z,98878.94
2023-04-05T10:27:05.725Z,98888.66
2023-04-05T10:29:06.682Z,98888.00
2023-04-05T10:30:53.227Z,98896.19
2023-04-05T10:32:56.681Z,98898.31
2023-04-05T10:34:56.786Z,98899.81
2023-04-05T10:36:50.167Z,98900.97
2023-04-05T10:38:37.754Z,98891.06
2023-04-05T10:40:36.696Z,98900.00
2023-04-05T10:42:22.180Z,98898.00
2023-04-05T10:44:25.502Z,98894.28
2023-04-05T10:46:21.582Z,98905.50
2023-04-05T10:48:23.701Z,98896.88
2023-04-05T10:50:20.796Z,98885.09
2023-04-05T10:52:00.992Z,98901.72
2023-04-05T10:53:55.090Z,98896.66
2023-04-05T10:55:49.679Z,98883.56
2023-04-05T10:57:38.843Z,98888.56
2023-04-05T10:59:33.232Z,98896.97
2023-04-05T11:01:34.700Z,98892.94
2023-04-05T11:03:50.914Z,98898.13
2023-04-05T11:05:42.057Z,98903.59
2023-04-05T11:07:44.478Z,98902.94
2023-04-05T11:09:33.746Z,98896.28
2023-04-05T11:11:23.044Z,98891.09
2023-04-05T11:13:11.654Z,98876.06
2023-04-05T11:14:59.754Z,98886.78
2023-04-05T11:16:47.937Z,98879.72
2023-04-05T11:18:34.636Z,98881.13
2023-04-05T11:20:20.788Z,98892.44
2023-04-05T11:22:09.007Z,98887.41
2023-04-05T11:24:03.814Z,98887.81
2023-04-05T11:25:54.882Z,98892.25
2023-04-05T11:27:42.194Z,98889.41
2023-04-05T11:29:49.649Z,98885.06
2023-04-05T11:31:35.731Z,98886.28
2023-04-05T11:34:06.971Z,98886.38
2023-04-05T11:36:09.821Z,98884.41
2023-04-05T11:38:20.764Z,98879.88
2023-04-05T11:40:35.955Z,98882.06
2023-04-05T11:42:23.944Z,98886.97
2023-04-05T11:44:16.701Z,98876.97
2023-04-05T11:46:02.772Z,98873.25
2023-04-05T11:47:45.034Z,98871.00
2023-04-05T11:49:39.923Z,98883.69
2023-04-05T11:51:38.872Z,98877.25
2023-04-05T11:53:38.771Z,98866.97
2023-04-05T11:55:28.022Z,98875.53
2023-04-05T11:57:20.737Z,98888.75
2023-04-05T11:59:13.962Z,98896.00
2023-04-05T12:01:07.974Z,98879.63
2023-04-05T12:02:53.812Z,98883.09
2023-04-05T12:04:42.064Z,98870.09
2023-04-05T12:06:34.959Z,98876.31
2023-04-05T12:08:21.766Z,98875.22
2023-04-05T12:10:12.050Z,98879.97
2023-04-05T12:12:11.964Z,98869.75
2023-04-05T12:14:00.181Z,98886.53
2023-04-05T12:15:46.957Z,98877.75
2023-04-05T12:17:46.289Z,98872.47
2023-04-05T12:19:45.813Z,98884.03
2023-04-05T12:21:40.795Z,98883.31
2023-04-05T12:23:35.157Z,98883.19
2023-04-05T12:25:14.856Z,98882.38
2023-04-05T12:27:08.778Z,98885.09
2023-04-05T12:28:59.034Z,98871.34
2023-04-05T12:30:57.163Z,98874.41
2023-04-05T12:32:58.857Z,98878.69
2023-04-05T12:34:49.233Z,98857.59
2023-04-05T12:36:42.789Z,98876.03
2023-04-05T12:38:31.790Z,98874.56
2023-04-05T12:40:25.932Z,98881.69
2023-04-05T12:42:11.771Z,98873.25
2023-04-05T12:44:01.669Z,98879.22
2023-04-05T12:45:57.998Z,98887.59
2023-04-05T12:47:50.901Z,98869.59
2023-04-05T12:49:30.737Z,98874.06
2023-04-05T12:51:23.570Z,98877.88
2023-04-05T12:53:14.794Z,98876.53
2023-04-05T12:55:03.180Z,98871.00
2023-04-05T12:56:50.516Z,98873.47
2023-04-05T12:58:42.864Z,98879.63
2023-04-05T13:00:26.709Z,98878.25
2023-04-05T13:02:14.081Z,98876.03
2023-04-05T13:04:12.536Z,98868.00
2023-04-05T13:06:15.811Z,98874.41
2023-04-05T13:08:09.156Z,98871.38
2023-04-05T13:10:01.859Z,98878.16
2023-04-05T13:11:42.956Z,98873.34
2023-04-05T13:13:35.932Z,98866.84
2023-04-05T13:15:28.863Z,98871.44
2023-04-05T13:17:15.064Z,98871.44
2023-04-05T13:19:02.127Z,98879.03
2023-04-05T13:20:48.030Z,98873.22
2023-04-05T13:22:41.844Z,98882.31
2023-04-05T13:24:28.206Z,98865.19
2023-04-05T13:26:14.641Z,98881.16
2023-04-05T13:28:02.872Z,98875.22
2023-04-05T13:29:43.295Z,98869.19
2023-04-05T13:31:29.954Z,98869.47
2023-04-05T13:33:22.828Z,98873.31
2023-04-05T13:35:10.497Z,98872.06
2023-04-05T13:36:58.115Z,98870.34
2023-04-05T13:38:43.841Z,98878.09
2023-04-05T13:40:43.915Z,98877.47
2023-04-05T13:42:31.145Z,98877.09
2023-04-05T13:44:25.934Z,98881.97
2023-04-05T13:46:12.815Z,98867.84
2023-04-05T13:48:05.898Z,98877.22
2023-04-05T13:49:51.887Z,98878.94
2023-04-05T13:51:41.550Z,98868.63
2023-04-05T13:53:33.853Z,98872.47
2023-04-05T13:55:20.077Z,98874.22
2023-04-05T13:57:06.851Z,98862.78
2023-04-05T13:58:53.911Z,98879.69
2023-04-05T14:00:35.068Z,98873.41
2023-04-05T14:02:32.863Z,98872.72
2023-04-05T14:04:25.913Z,98878.81
2023-04-05T14:06:05.895Z,98870.06
2023-04-05T14:07:52.410Z,98869.41
2023-04-05T14:09:38.917Z,98866.59
2023-04-05T14:11:18.596Z,98876.03
2023-04-05T14:13:11.177Z,98879.84
2023-04-05T14:15:03.929Z,98882.75
2023-04-05T14:16:45.134Z,98880.66
2023-04-05T14:18:31.968Z,98883.84
2023-04-05T14:20:18.919Z,98880.38
2023-04-05T14:21:59.107Z,98873.44
2023-04-05T14:23:45.878Z,98874.31
2023-04-05T14:25:32.923Z,98874.38
2023-04-05T14:27:13.147Z,98873.25
2023-04-05T14:29:00.031Z,98878.81
2023-04-05T14:30:46.889Z,98881.25
2023-04-05T14:32:28.198Z,98873.41
2023-04-05T14:34:21.992Z,98884.44
2023-04-05T14:36:14.904Z,98871.41
2023-04-05T14:37:54.739Z,98874.16
2023-04-05T14:39:48.005Z,98879.84
2023-04-05T14:41:41.919Z,98885.38
2023-04-05T14:43:28.135Z,98890.06
2023-04-05T14:45:22.095Z,98884.56
2023-04-05T14:47:14.926Z,98885.00
2023-04-05T14:49:16.885Z,98890.66
2023-04-05T14:51:11.220Z,98893.09
2023-04-05T14:52:57.111Z,98892.41
2023-04-05T14:54:49.873Z,98902.50
2023-04-05T14:56:36.023Z,98902.88
2023-04-05T14:58:22.755Z,98902.69
2023-04-05T15:00:15.928Z,98908.47
2023-04-05T15:01:56.182Z,98914.25
2023-04-05T15:03:42.372Z,98903.19
2023-04-05T15:05:29.904Z,98905.81
2023-04-05T15:07:30.091Z,98906.94
2023-04-05T15:09:16.853Z,98915.66
2023-04-05T15:11:09.935Z,98907.91
2023-04-05T15:13:04.274Z,98894.50
2023-04-05T15:14:51.874Z,98902.31
2023-04-05T15:16:37.958Z,98906.56
2023-04-05T15:18:24.220Z,98904.59
2023-04-05T15:20:11.499Z,98904.06
2023-04-05T15:21:58.993Z,98915.28
2023-04-05T15:23:46.772Z,98914.38
2023-04-05T15:25:39.939Z,98923.00
2023-04-05T15:27:27.014Z,98918.72
2023-04-05T15:29:27.036Z,98919.66
2023-04-05T15:31:13.904Z,98925.44
2023-04-05T15:33:09.003Z,98923.50
2023-04-05T15:35:02.286Z,98919.97
2023-04-05T15:36:48.876Z,98931.88
2023-04-05T15:38:44.064Z,98915.59
2023-04-05T15:40:31.370Z,98931.31
2023-04-05T15:42:16.973Z,98921.25
2023-04-05T15:44:04.014Z,98930.81
2023-04-05T15:45:58.088Z,98933.25
2023-04-05T15:47:38.212Z,98934.09
2023-04-05T15:49:24.837Z,98932.38
2023-04-05T15:51:11.995Z,98935.06
2023-04-05T15:52:52.275Z,98935.25
2023-04-05T15:54:40.402Z,98936.19
2023-04-05T15:56:27.246Z,98934.50
2023-04-05T15:58:13.204Z,98944.16
2023-04-05T15:59:54.440Z,98935.38
2023-04-05T16:01:41.174Z,98938.13
2023-04-05T16:03:21.281Z,98944.94
2023-04-05T16:05:08.167Z,98938.63
2023-04-05T16:06:55.036Z,98947.13
2023-04-05T16:08:41.230Z,98939.16
2023-04-05T16:10:29.254Z,98934.97
2023-04-05T16:12:16.133Z,98936.91
2023-04-05T16:13:56.969Z,98943.88
2023-04-05T16:15:43.882Z,98943.94
2023-04-05T16:17:32.135Z,98944.84
2023-04-05T16:19:18.260Z,98946.97
2023-04-05T16:21:11.943Z,98948.69
2023-04-05T16:23:06.106Z,98965.31
2023-04-05T16:24:45.815Z,98956.41
2023-04-05T16:26:41.008Z,98951.53
2023-04-05T16:28:34.004Z,98958.53
2023-04-05T16:30:16.011Z,98953.25
2023-04-05T16:32:09.079Z,98960.44
2023-04-05T16:34:09.061Z,98960.53
2023-04-05T16:35:56.228Z,98961.59
2023-04-05T16:37:50.018Z,98967.03
2023-04-05T16:39:50.274Z,98962.91
2023-04-05T16:41:51.956Z,98972.38
2023-04-05T16:43:44.987Z,98980.44
2023-04-05T16:45:34.174Z,98971.66
2023-04-05T16:47:27.060Z,98965.69
2023-04-05T16:49:14.015Z,98976.22
2023-04-05T16:51:01.013Z,98974.72
2023-04-05T16:52:54.020Z,98966.75
2023-04-05T16:54:53.998Z,98967.09
2023-04-05T16:56:42.767Z,98973.59
2023-04-05T16:58:36.034Z,98958.56
2023-04-05T17:00:35.961Z,98969.25
2023-04-05T17:02:29.254Z,98970.41
2023-04-05T17:04:16.046Z,98969.38
2023-04-05T17:06:11.204Z,98983.31
2023-04-05T17:07:58.137Z,98970.25
2023-04-05T17:09:51.044Z,98985.03
2023-04-05T17:11:30.267Z,98976.63
2023-04-05T17:13:25.070Z,98983.53
2023-04-05T17:15:11.978Z,98986.94
2023-04-05T17:16:58.913Z,98981.75
2023-04-05T17:18:53.101Z,98984.38
2023-04-05T17:20:46.074Z,98990.91
2023-04-05T17:22:26.266Z,98985.56
2023-04-05T17:24:20.302Z,98989.19
2023-04-05T17:26:07.041Z,98992.63
2023-04-05T17:28:00.088Z,98991.88
2023-04-05T17:29:48.373Z,98992.63
2023-04-05T17:31:41.119Z,98991.00
2023-04-05T17:33:34.070Z,99003.41
2023-04-05T17:35:34.005Z,99005.19
2023-04-05T17:37:27.061Z,99007.72
2023-04-05T17:39:21.036Z,99004.22
2023-04-05T17:41:08.164Z,99006.72
2023-04-05T17:43:01.064Z,99011.00
2023-04-05T17:44:43.183Z,99013.50
2023-04-05T17:46:42.799Z,99020.47
2023-04-05T17:48:39.041Z,99013.59
2023-04-05T17:50:19.614Z,99017.28
2023-04-05T17:52:08.868Z,99014.81
2023-04-05T17:53:56.053Z,99012.19
2023-04-05T17:55:36.321Z,99030.69
2023-04-05T17:57:23.346Z,99027.94
2023-04-05T17:59:10.258Z,99034.41
2023-04-05T18:00:51.280Z,99024.91
2023-04-05T18:02:41.001Z,99026.63
2023-04-05T18:04:28.126Z,99028.44
2023-04-05T18:06:08.333Z,99037.16
2023-04-05T18:07:55.183Z,99038.94
2023-04-05T18:09:44.055Z,99032.84
2023-04-05T18:11:30.377Z,99039.13
2023-04-05T18:13:09.972Z,99040.22
2023-04-05T18:14:57.133Z,99042.72
2023-04-05T18:16:38.356Z,99046.22
2023-04-05T18:18:32.069Z,99037.47
2023-04-05T18:20:19.287Z,99044.44
2023-04-05T18:22:12.094Z,99046.22
2023-04-05T18:23:59.174Z,99051.34
2023-04-05T18:25:59.117Z,99048.06
2023-04-05T18:28:00.052Z,99050.31
2023-04-05T18:29:55.415Z,99054.50
2023-04-05T18:31:43.501Z,99057.84
2023-04-05T18:33:36.175Z,99070.25
2023-04-05T18:35:37.231Z,99038.94
2023-04-05T18:37:24.034Z,99054.72
2023-04-05T18:39:17.056Z,99060.06
2023-04-05T18:41:19.059Z,99051.97
2023-04-05T18:43:05.927Z,99063.56
2023-04-05T18:44:59.142Z,99052.25
2023-04-05T18:46:41.048Z,99056.88
2023-04-05T18:48:27.402Z,99066.66
2023-04-05T18:50:16.106Z,99059.81
2023-04-05T18:52:18.254Z,99053.03
2023-04-05T18:54:12.132Z,99065.41
2023-04-05T18:56:01.109Z,99068.94
2023-04-05T18:57:48.306Z,99067.09
2023-04-05T18:59:41.181Z,99070.41
2023-04-05T19:01:20.965Z,99060.84
2023-04-05T19:03:09.979Z,99077.31
2023-04-05T19:04:58.091Z,99070.25
2023-04-05T19:06:38.152Z,99069.31
2023-04-05T19:08:33.340Z,99065.88
2023-04-05T19:10:26.169Z,99069.25
2023-04-05T19:12:13.370Z,99069.03
2023-04-05T19:14:08.382Z,99068.28
2023-04-05T19:15:55.155Z,99070.63
2023-04-05T19:17:41.957Z,99069.88
2023-04-05T19:19:37.128Z,99073.25
2023-04-05T19:21:31.154Z,99071.41
2023-04-05T19:23:11.337Z,99073.25
2023-04-05T19:25:05.116Z,99073.34
2023-04-05T19:26:52.393Z,99077.72
2023-04-05T19:28:32.101Z,99082.03
2023-04-05T19:30:19.468Z,99074.16
2023-04-05T19:32:05.408Z,99078.00
2023-04-05T19:33:51.100Z,99071.78
2023-04-05T19:35:46.417Z,99076.94
2023-04-05T19:37:46.111Z,99073.50
2023-04-05T19:39:34.796Z,99074.22
2023-04-05T19:41:27.181Z,99069.81
2023-04-05T19:43:07.027Z,99067.22
2023-04-05T19:45:04.151Z,99055.81
2023-04-05T19:46:58.166Z,99064.69
2023-04-05T19:48:46.479Z,99047.53
2023-04-05T19:50:58.974Z,99066.72
2023-04-05T19:52:51.504Z,99064.94
2023-04-05T19:54:38.543Z,99054.38
2023-04-05T19:56:27.202Z,99063.19
2023-04-05T19:58:08.686Z,99061.53
2023-04-05T19:59:55.076Z,99063.28
2023-04-05T20:01:54.219Z,99066.66
2023-04-05T20:03:42.585Z,99059.53
2023-04-05T20:06:08.125Z,99063.06
2023-04-05T20:08:01.257Z,99064.63
2023-04-05T20:09:41.153Z,99060.16
2023-04-05T20:11:36.187Z,99060.25
2023-04-05T20:13:23.167Z,99064.66
2023-04-05T20:15:18.782Z,99065.66
2023-04-05T20:17:13.153Z,99062.28
2023-04-05T20:19:06.425Z,99055.59
2023-04-05T20:20:47.727Z,99059.94
2023-04-05T20:22:42.136Z,99071.53
2023-04-05T20:24:42.097Z,99060.22
2023-04-05T20:26:37.445Z,99063.88
2023-04-05T20:28:43.675Z,99063.03
2023-04-05T20:30:38.129Z,99068.25
2023-04-05T20:32:25.421Z,99072.53
2023-04-05T20:34:26.150Z,99062.91
2023-04-05T20:36:20.787Z,99058.63
2023-04-05T20:38:08.219Z,99070.06
2023-04-05T20:39:48.100Z,99065.63
2023-04-05T20:41:41.198Z,99065.53
2023-04-05T20:43:34.399Z,99069.78
2023-04-05T20:45:22.371Z,99065.34
2023-04-05T20:47:15.287Z,99063.69
2023-04-05T20:49:01.549Z,99059.25
2023-04-05T20:50:54.129Z,99060.56
2023-04-05T20:52:40.215Z,99059.75
2023-04-05T20:54:28.926Z,99052.66
2023-04-05T20:56:16.855Z,99062.16
2023-04-05T20:58:03.149Z,99062.03
2023-04-05T20:59:43.213Z,99063.72
2023-04-05T21:01:36.221Z,99048.34
2023-04-05T21:03:22.288Z,99057.84
2023-04-05T21:05:08.518Z,99059.47
2023-04-05T21:07:01.172Z,99050.66
2023-04-05T21:08:40.466Z,99057.59
2023-04-05T21:10:29.190Z,99048.19
2023-04-05T21:12:18.249Z,99046.63
2023-04-05T21:14:04.457Z,99057.19
2023-04-05T21:15:44.312Z,99056.25
2023-04-05T21:17:31.206Z,99055.31
2023-04-05T21:19:10.684Z,99055.31
2023-04-05T21:20:58.565Z,99059.81
2023-04-05T21:22:45.198Z,99051.88
2023-04-05T21:24:24.419Z,99051.78
2023-04-05T21:26:12.599Z,99056.28
2023-04-05T21:27:58.241Z,99052.06
2023-04-05T21:29:38.443Z,99055.59
2023-04-05T21:31:25.526Z,99053.09
2023-04-05T21:33:12.302Z,99057.44
2023-04-05T21:34:52.460Z,99055.63
2023-04-05T21:36:39.560Z,99058.16
2023-04-05T21:38:26.257Z,99054.63